sensor_id;sensor_type;location;lat;lon;timestamp;pressure;altitude;pressure_sealevel;temperature;humidity
5350;BME280;2697;42.144;24.794;2023-05-24T00:00:42;-3398.34;;;15.70;100.00
5350;BME280;2697;42.144;24.794;2023-05-24T00:03:07;-2722.03;;;15.57;100.00
5350;BME280;2697;42.144;24.794;2023-05-24T00:05:33;-2721.91;;;15.51;100.00
5350;BME280;2697;42.144;24.794;2023-05-24T00:08:02;-2721.84;;;15.49;100.00
5350;BME280;2697;42.144;24.794;2023-05-24T00:10:27;-3397.25;;;15.37;100.00
5350;BME280;2697;42.144;24.794;2023-05-24T00:12:52;-5085.00;;;15.22;100.00
5350;BME280;2697;42.144;24.794;2023-05-24T00:15:18;-6097.22;;;15.17;100.00
5350;BME280;2697;42.144;24.794;2023-05-24T00:17:43;-6771.53;;;15.10;100.00
5350;BME280;2697;42.144;24.794;2023-05-24T00:20:10;-7783.59;;;15.11;100.00
5350;BME280;2697;42.144;24.794;2023-05-24T00:22:36;-7108.50;;;15.06;100.00
5350;BME280;2697;42.144;24.794;2023-05-24T00:25:02;-6434.88;;;15.19;100.00
5350;BME280;2697;42.144;24.794;2023-05-24T00:27:28;-5085.06;;;15.23;100.00
5350;BME280;2697;42.144;24.794;2023-05-24T00:29:53;-4409.66;;;15.19;100.00
5350;BME280;2697;42.144;24.794;2023-05-24T00:32:18;-4409.50;;;15.16;100.00
5350;BME280;2697;42.144;24.794;2023-05-24T00:34:44;-3734.31;;;15.18;100.00
5350;BME280;2697;42.144;24.794;2023-05-24T00:37:09;-3396.19;;;15.05;100.00
5350;BME280;2697;42.144;24.794;2023-05-24T00:39:34;-3058.47;;;15.02;100.00
5350;BME280;2697;42.144;24.794;2023-05-24T00:42:01;-3058.09;;;14.89;100.00
5350;BME280;2697;42.144;24.794;2023-05-24T00:44:26;-3395.81;;;14.94;100.00
5350;BME280;2697;42.144;24.794;2023-05-24T00:46:51;-2045.34;;;14.99;100.00
5350;BME280;2697;42.144;24.794;2023-05-24T00:49:18;319.53;;;15.03;100.00
5350;BME280;2697;42.144;24.794;2023-05-24T00:51:44;1333.25;;;14.97;100.00
5350;BME280;2697;42.144;24.794;2023-05-24T00:54:09;2685.47;;;14.96;100.00
5350;BME280;2697;42.144;24.794;2023-05-24T00:56:38;3361.53;;;14.93;100.00
5350;BME280;2697;42.144;24.794;2023-05-24T00:59:03;5391.38;;;14.96;100.00
5350;BME280;2697;42.144;24.794;2023-05-24T01:01:29;6068.03;;;14.95;100.00
5350;BME280;2697;42.144;24.794;2023-05-24T01:03:55;7083.13;;;14.93;100.00
5350;BME280;2697;42.144;24.794;2023-05-24T01:06:21;8775.84;;;14.93;100.00
5350;BME280;2697;42.144;24.794;2023-05-24T01:14:28;19629.19;;;14.98;100.00
5350;BME280;2697;42.144;24.794;2023-05-24T01:17:20;23024.00;;;14.91;100.00
5350;BME280;2697;42.144;24.794;2023-05-24T01:19:55;23021.78;;;14.86;100.00
5350;BME280;2697;42.144;24.794;2023-05-24T01:27:49;20293.34;;;14.55;100.00
5350;BME280;2697;42.144;24.794;2023-05-24T01:30:15;20292.81;;;14.53;100.00
5350;BME280;2697;42.144;24.794;2023-05-24T01:32:41;16900.47;;;14.55;100.00
5350;BME280;2697;42.144;24.794;2023-05-24T01:35:07;17240.69;;;14.59;100.00
5350;BME280;2697;42.144;24.794;2023-05-24T01:37:33;18935.34;;;14.53;100.00
5350;BME280;2697;42.144;24.794;2023-05-24T01:39:58;20296.72;;;14.65;100.00
5350;BME280;2697;42.144;24.794;2023-05-24T01:48:01;22332.59;;;14.61;100.00
5350;BME280;2697;42.144;24.794;2023-05-24T01:50:34;23009.56;;;14.54;100.00
5350;BME280;2697;42.144;24.794;2023-05-24T01:53:06;22666.75;;;14.46;100.00
5350;BME280;2697;42.144;24.794;2023-05-24T01:55:34;23347.81;;;14.51;100.00
5350;BME280;2697;42.144;24.794;2023-05-24T01:58:03;22665.94;;;14.44;100.00
5350;BME280;2697;42.144;24.794;2023-05-24T02:00:30;23006.16;;;14.46;100.00
5350;BME280;2697;42.144;24.794;2023-05-24T02:02:56;26408.38;;;14.56;100.00
5350;BME280;2697;42.144;24.794;2023-05-24T02:05:22;26062.31;;;14.42;100.00
5350;BME280;2697;42.144;24.794;2023-05-24T02:07:47;24362.53;;;14.40;100.00
5350;BME280;2697;42.144;24.794;2023-05-24T02:10:13;27091.91;;;14.64;100.00
5350;BME280;2697;42.144;24.794;2023-05-24T02:12:38;32535.75;;;14.62;100.00
5350;BME280;2697;42.144;24.794;2023-05-24T02:15:04;31506.69;;;14.47;100.00
5350;BME280;2697;42.144;24.794;2023-05-24T02:17:30;29461.97;;;14.41;100.00
5350;BME280;2697;42.144;24.794;2023-05-24T02:19:57;26732.41;;;14.21;100.00
5350;BME280;2697;42.144;24.794;2023-05-24T02:22:23;20275.00;;;14.03;100.00
5350;BME280;2697;42.144;24.794;2023-05-24T02:24:48;17899.97;;;13.97;100.00
5350;BME280;2697;42.144;24.794;2023-05-24T02:27:14;16202.22;;;13.84;100.00
5350;BME280;2697;42.144;24.794;2023-05-24T02:29:39;13494.63;;;13.88;100.00
5350;BME280;2697;42.144;24.794;2023-05-24T02:32:06;12142.28;;;13.94;100.00
5350;BME280;2697;42.144;24.794;2023-05-24T02:34:31;12472.75;;;13.59;100.00
5350;BME280;2697;42.144;24.794;2023-05-24T02:36:56;652.13;;;13.32;100.00
5350;BME280;2697;42.144;24.794;2023-05-24T02:39:22;-4063.75;;;13.34;100.00
5350;BME280;2697;42.144;24.794;2023-05-24T02:41:47;-8101.06;;;13.31;100.00
5350;BME280;2697;42.144;24.794;2023-05-24T02:44:13;-10454.34;;;13.32;100.00
5350;BME280;2697;42.144;24.794;2023-05-24T02:46:38;-11461.28;;;13.25;100.00
5350;BME280;2697;42.144;24.794;2023-05-24T02:49:03;-12801.22;;;13.05;100.00
5350;BME280;2697;42.144;24.794;2023-05-24T02:51:29;-15821.16;;;13.04;100.00
5350;BME280;2697;42.144;24.794;2023-05-24T02:53:54;-19509.63;;;13.05;100.00
5350;BME280;2697;42.144;24.794;2023-05-24T02:56:20;-19507.25;;;12.90;100.00
5350;BME280;2697;42.144;24.794;2023-05-24T02:58:46;-19505.31;;;12.83;100.00
5350;BME280;2697;42.144;24.794;2023-05-24T03:01:11;-19505.31;;;12.83;100.00
5350;BME280;2697;42.144;24.794;2023-05-24T03:03:37;-19502.31;;;12.73;100.00
5350;BME280;2697;42.144;24.794;2023-05-24T03:06:03;-19501.13;;;12.69;100.00
5350;BME280;2697;42.144;24.794;2023-05-24T03:08:28;-19501.13;;;12.69;100.00
5350;BME280;2697;42.144;24.794;2023-05-24T03:10:54;-19500.81;;;12.68;100.00
5350;BME280;2697;42.144;24.794;2023-05-24T03:13:19;-19505.75;;;12.85;100.00
5350;BME280;2697;42.144;24.794;2023-05-24T03:15:45;-19512.50;;;13.08;100.00
5350;BME280;2697;42.144;24.794;2023-05-24T03:18:10;-19518.19;;;13.27;100.00
5350;BME280;2697;42.144;24.794;2023-05-24T03:20:36;-19523.59;;;13.46;100.00
5350;BME280;2697;42.144;24.794;2023-05-24T03:23:01;-19530.47;;;13.69;100.00
5350;BME280;2697;42.144;24.794;2023-05-24T03:25:27;-19543.78;;;14.14;100.00
5350;BME280;2697;42.144;24.794;2023-05-24T03:27:52;-19556.66;;;14.58;100.00
5350;BME280;2697;42.144;24.794;2023-05-24T03:30:17;-19570.88;;;15.06;100.00
5350;BME280;2697;42.144;24.794;2023-05-24T03:32:43;-16887.78;;;15.45;100.00
5350;BME280;2697;42.144;24.794;2023-05-24T03:35:08;-5089.00;;;15.88;100.00
5350;BME280;2697;42.144;24.794;2023-05-24T03:37:36;9816.13;;;16.28;100.00
5350;BME280;2697;42.144;24.794;2023-05-24T03:40:02;37446.31;;;16.85;100.00
5350;BME280;2697;42.144;24.794;2023-05-24T03:42:28;52875.19;;;16.85;100.00
5350;BME280;2697;42.144;24.794;2023-05-24T03:44:54;67712.41;;;17.19;100.00
5350;BME280;2697;42.144;24.794;2023-05-24T03:47:19;98580.06;;;17.46;100.00
5350;BME280;2697;42.144;24.794;2023-05-24T03:49:45;135317.84;;;17.69;100.00
5350;BME280;2697;42.144;24.794;2023-05-24T03:52:11;157257.97;;;18.14;100.00
5350;BME280;2697;42.144;24.794;2023-05-24T03:54:36;157444.81;;;18.86;100.00
5350;BME280;2697;42.144;24.794;2023-05-24T03:57:02;157532.28;;;19.20;100.00
5350;BME280;2697;42.144;24.794;2023-05-24T03:59:27;157545.53;;;19.25;100.00
5350;BME280;2697;42.144;24.794;2023-05-24T04:01:53;157476.59;;;18.98;100.00
5350;BME280;2697;42.144;24.794;2023-05-24T04:04:18;157497.81;;;19.06;100.00
5350;BME280;2697;42.144;24.794;2023-05-24T04:06:44;157527.00;;;19.18;100.00
5350;BME280;2697;42.144;24.794;2023-05-24T04:09:09;157599.91;;;19.46;100.00
5350;BME280;2697;42.144;24.794;2023-05-24T04:11:35;157649.00;;;19.64;100.00
5350;BME280;2697;42.144;24.794;2023-05-24T04:14:00;157688.75;;;19.80;100.00
5350;BME280;2697;42.144;24.794;2023-05-24T04:16:26;157723.25;;;19.93;100.00
5350;BME280;2697;42.144;24.794;2023-05-24T04:18:55;157874.50;;;20.51;100.00
5350;BME280;2697;42.144;24.794;2023-05-24T04:21:21;157975.31;;;20.90;100.00
5350;BME280;2697;42.144;24.794;2023-05-24T04:23:46;158019.13;;;21.06;100.00
5350;BME280;2697;42.144;24.794;2023-05-24T04:26:12;158234.22;;;21.89;90.56
5350;BME280;2697;42.144;24.794;2023-05-24T04:28:38;158248.81;;;21.95;88.67
5350;BME280;2697;42.144;24.794;2023-05-24T04:31:04;158240.84;;;21.91;90.05
5350;BME280;2697;42.144;24.794;2023-05-24T04:33:31;158275.34;;;22.05;87.47
5350;BME280;2697;42.144;24.794;2023-05-24T04:35:56;158284.75;;;22.08;83.81
5350;BME280;2697;42.144;24.794;2023-05-24T04:38:25;158312.63;;;22.19;85.62
5350;BME280;2697;42.144;24.794;2023-05-24T04:40:57;158490.66;;;22.87;79.20
5350;BME280;2697;42.144;24.794;2023-05-24T04:43:23;158440.13;;;22.68;78.14
5350;BME280;2697;42.144;24.794;2023-05-24T04:45:51;158466.69;;;22.78;77.82
5350;BME280;2697;42.144;24.794;2023-05-24T04:48:17;158702.06;;;23.68;71.99
5350;BME280;2697;42.144;24.794;2023-05-24T04:50:43;158813.75;;;24.11;67.69
5350;BME280;2697;42.144;24.794;2023-05-24T04:53:08;158703.38;;;23.69;69.99
5350;BME280;2697;42.144;24.794;2023-05-24T04:55:34;158769.88;;;23.94;64.64
5350;BME280;2697;42.144;24.794;2023-05-24T04:58:00;158666.09;;;23.54;65.95
5350;BME280;2697;42.144;24.794;2023-05-24T05:00:25;158833.69;;;24.18;63.54
5350;BME280;2697;42.144;24.794;2023-05-24T05:02:50;159302.25;;;25.98;58.45
5350;BME280;2697;42.144;24.794;2023-05-24T05:05:16;159031.97;;;24.94;61.45
5350;BME280;2697;42.144;24.794;2023-05-24T05:07:41;159025.28;;;24.92;59.19
5350;BME280;2697;42.144;24.794;2023-05-24T05:10:07;159280.94;;;25.90;57.97
5350;BME280;2697;42.144;24.794;2023-05-24T05:12:32;159486.06;;;26.68;53.43
5350;BME280;2697;42.144;24.794;2023-05-24T05:14:58;159304.91;;;25.99;53.35
5350;BME280;2697;42.144;24.794;2023-05-24T05:17:23;159312.88;;;26.02;54.46
5350;BME280;2697;42.144;24.794;2023-05-24T05:19:48;159347.50;;;26.15;53.97
5350;BME280;2697;42.144;24.794;2023-05-24T05:22:14;159476.75;;;26.64;52.10
5350;BME280;2697;42.144;24.794;2023-05-24T05:24:40;159539.34;;;26.88;50.63
5350;BME280;2697;42.144;24.794;2023-05-24T05:27:05;159459.44;;;26.58;51.35
5350;BME280;2697;42.144;24.794;2023-05-24T05:29:31;159083.91;;;25.14;56.27
5350;BME280;2697;42.144;24.794;2023-05-24T05:31:56;158933.47;;;24.57;60.65
5350;BME280;2697;42.144;24.794;2023-05-24T05:34:21;159054.59;;;25.03;57.60
5350;BME280;2697;42.144;24.794;2023-05-24T05:36:47;159223.63;;;25.68;55.81
5350;BME280;2697;42.144;24.794;2023-05-24T05:39:12;159195.69;;;25.57;55.65
5350;BME280;2697;42.144;24.794;2023-05-24T05:41:38;158974.72;;;24.72;57.31
5350;BME280;2697;42.144;24.794;2023-05-24T05:44:04;158994.69;;;24.80;58.16
5350;BME280;2697;42.144;24.794;2023-05-24T05:46:30;158836.31;;;24.20;59.94
5350;BME280;2697;42.144;24.794;2023-05-24T05:48:56;158764.56;;;23.92;63.45
5350;BME280;2697;42.144;24.794;2023-05-24T05:51:21;158877.63;;;24.35;63.25
5350;BME280;2697;42.144;24.794;2023-05-24T05:53:46;158948.13;;;24.62;63.26
5350;BME280;2697;42.144;24.794;2023-05-24T05:56:12;159082.59;;;25.14;60.02
5350;BME280;2697;42.144;24.794;2023-05-24T05:58:37;159311.56;;;26.01;57.05
5350;BME280;2697;42.144;24.794;2023-05-24T06:01:05;159428.81;;;26.46;54.63
5350;BME280;2697;42.144;24.794;2023-05-24T06:03:30;159833.97;;;28.01;51.08
5350;BME280;2697;42.144;24.794;2023-05-24T06:05:55;159608.69;;;27.15;53.00
5350;BME280;2697;42.144;24.794;2023-05-24T06:08:21;160152.84;;;29.22;48.15
5350;BME280;2697;42.144;24.794;2023-05-24T06:10:46;160353.06;;;29.99;44.29
5350;BME280;2697;42.144;24.794;2023-05-24T06:13:12;160168.81;;;29.29;46.11
5350;BME280;2697;42.144;24.794;2023-05-24T06:15:38;160104.81;;;29.04;46.15
5350;BME280;2697;42.144;24.794;2023-05-24T06:18:04;160088.81;;;28.98;44.72
5350;BME280;2697;42.144;24.794;2023-05-24T06:20:29;160291.63;;;29.75;44.36
5350;BME280;2697;42.144;24.794;2023-05-24T06:22:55;160184.84;;;29.35;44.80
5350;BME280;2697;42.144;24.794;2023-05-24T06:25:21;160115.47;;;29.08;44.99
5350;BME280;2697;42.144;24.794;2023-05-24T06:27:49;159963.38;;;28.50;47.52
5350;BME280;2697;42.144;24.794;2023-05-24T06:30:15;160010.06;;;28.68;45.72
5350;BME280;2697;42.144;24.794;2023-05-24T06:32:40;160254.28;;;29.61;43.86
5350;BME280;2697;42.144;24.794;2023-05-24T06:35:06;160111.47;;;29.07;45.89
5350;BME280;2697;42.144;24.794;2023-05-24T06:37:32;159946.03;;;28.44;47.42
5350;BME280;2697;42.144;24.794;2023-05-24T06:39:57;160377.13;;;30.08;43.01
5350;BME280;2697;42.144;24.794;2023-05-24T06:42:23;160363.72;;;30.03;43.54
5350;BME280;2697;42.144;24.794;2023-05-24T06:44:48;160252.97;;;29.61;43.77
5350;BME280;2697;42.144;24.794;2023-05-24T06:47:13;160347.72;;;29.97;42.56
5350;BME280;2697;42.144;24.794;2023-05-24T06:49:39;160482.59;;;30.48;42.69
5350;BME280;2697;42.144;24.794;2023-05-24T06:52:04;160341.00;;;29.94;42.71
5350;BME280;2697;42.144;24.794;2023-05-24T06:54:31;160299.69;;;29.78;42.74
5350;BME280;2697;42.144;24.794;2023-05-24T06:56:57;160614.81;;;30.99;41.41
5350;BME280;2697;42.144;24.794;2023-05-24T06:59:23;160546.75;;;30.73;42.00
5350;BME280;2697;42.144;24.794;2023-05-24T07:01:48;159774.00;;;27.78;49.69
5350;BME280;2697;42.144;24.794;2023-05-24T07:04:17;160071.44;;;28.91;48.25
5350;BME280;2697;42.144;24.794;2023-05-24T07:06:42;160339.69;;;29.94;45.16
5350;BME280;2697;42.144;24.794;2023-05-24T07:09:09;160498.63;;;30.54;44.69
5350;BME280;2697;42.144;24.794;2023-05-24T07:11:35;160254.28;;;29.61;46.12
5350;BME280;2697;42.144;24.794;2023-05-24T07:14:00;160447.88;;;30.35;44.85
5350;BME280;2697;42.144;24.794;2023-05-24T07:16:26;160465.22;;;30.42;44.26
5350;BME280;2697;42.144;24.794;2023-05-24T07:18:51;160128.84;;;29.13;47.68
5350;BME280;2697;42.144;24.794;2023-05-24T07:21:17;160377.13;;;30.08;43.61
5350;BME280;2697;42.144;24.794;2023-05-24T07:23:42;160532.03;;;30.67;44.38
5350;BME280;2697;42.144;24.794;2023-05-24T07:26:07;160481.25;;;30.48;44.18
5350;BME280;2697;42.144;24.794;2023-05-24T07:28:33;160419.81;;;30.24;45.10
5350;BME280;2697;42.144;24.794;2023-05-24T07:31:02;161315.44;;;33.65;38.60
5350;BME280;2697;42.144;24.794;2023-05-24T07:33:27;160601.50;;;30.93;43.13
5350;BME280;2697;42.144;24.794;2023-05-24T07:35:52;160879.44;;;31.99;41.69
5350;BME280;2697;42.144;24.794;2023-05-24T07:38:18;160669.63;;;31.19;42.22
5350;BME280;2697;42.144;24.794;2023-05-24T07:40:44;160537.38;;;30.69;41.44
5350;BME280;2697;42.144;24.794;2023-05-24T07:43:10;160534.69;;;30.68;42.18
5350;BME280;2697;42.144;24.794;2023-05-24T07:45:35;160856.72;;;31.91;40.53
5350;BME280;2697;42.144;24.794;2023-05-24T07:48:01;160688.31;;;31.27;41.40
5350;BME280;2697;42.144;24.794;2023-05-24T07:50:26;160904.81;;;32.09;40.23
5350;BME280;2697;42.144;24.794;2023-05-24T07:52:56;160850.03;;;31.88;39.38
5350;BME280;2697;42.144;24.794;2023-05-24T07:55:21;160556.06;;;30.76;40.57
5350;BME280;2697;42.144;24.794;2023-05-24T07:57:47;160286.31;;;29.73;44.42
5350;BME280;2697;42.144;24.794;2023-05-24T08:00:12;159940.72;;;28.42;45.71
5350;BME280;2697;42.144;24.794;2023-05-24T08:02:41;159847.31;;;28.06;46.18
5350;BME280;2697;42.144;24.794;2023-05-24T08:05:10;160003.34;;;28.65;43.51
5350;BME280;2697;42.144;24.794;2023-05-24T08:07:35;159907.34;;;28.29;44.23
5350;BME280;2697;42.144;24.794;2023-05-24T08:10:01;159872.66;;;28.16;43.76
5350;BME280;2697;42.144;24.794;2023-05-24T08:12:26;159966.03;;;28.51;44.45
5350;BME280;2697;42.144;24.794;2023-05-24T08:14:54;159920.69;;;28.34;44.76
5350;BME280;2697;42.144;24.794;2023-05-24T08:17:20;159596.72;;;27.10;47.77
5350;BME280;2697;42.144;24.794;2023-05-24T08:19:45;159635.31;;;27.25;46.44
5350;BME280;2697;42.144;24.794;2023-05-24T08:22:11;159638.00;;;27.26;46.82
5350;BME280;2697;42.144;24.794;2023-05-24T08:24:36;159532.69;;;26.86;50.03
5350;BME280;2697;42.144;24.794;2023-05-24T08:27:02;159419.47;;;26.42;49.28
5350;BME280;2697;42.144;24.794;2023-05-24T08:29:28;159432.78;;;26.48;48.70
5350;BME280;2697;42.144;24.794;2023-05-24T08:31:54;159390.13;;;26.31;49.08
5350;BME280;2697;42.144;24.794;2023-05-24T08:34:20;159443.44;;;26.52;47.40
5350;BME280;2697;42.144;24.794;2023-05-24T08:36:45;159531.38;;;26.85;47.63
5350;BME280;2697;42.144;24.794;2023-05-24T08:39:11;159526.03;;;26.83;46.39
5350;BME280;2697;42.144;24.794;2023-05-24T08:41:36;159602.03;;;27.12;46.61
5350;BME280;2697;42.144;24.794;2023-05-24T08:44:06;159550.03;;;26.92;46.71
5350;BME280;2697;42.144;24.794;2023-05-24T08:46:33;159600.69;;;27.12;45.99
5350;BME280;2697;42.144;24.794;2023-05-24T08:48:59;159703.31;;;27.51;45.66
5350;BME280;2697;42.144;24.794;2023-05-24T08:51:30;159771.34;;;27.77;44.49
5350;BME280;2697;42.144;24.794;2023-05-24T08:53:57;159752.66;;;27.70;44.23
5350;BME280;2697;42.144;24.794;2023-05-24T08:56:23;159768.69;;;27.76;44.55
5350;BME280;2697;42.144;24.794;2023-05-24T08:58:49;159671.34;;;27.39;46.01
5350;BME280;2697;42.144;24.794;2023-05-24T09:01:16;159767.34;;;27.75;45.85
5350;BME280;2697;42.144;24.794;2023-05-24T09:03:42;159720.63;;;27.58;45.85
5350;BME280;2697;42.144;24.794;2023-05-24T09:06:09;159600.69;;;27.12;46.91
5350;BME280;2697;42.144;24.794;2023-05-24T09:08:36;159403.44;;;26.36;50.56
5350;BME280;2697;42.144;24.794;2023-05-24T09:11:03;159470.13;;;26.62;49.26
5350;BME280;2697;42.144;24.794;2023-05-24T09:13:30;159468.72;;;26.61;48.16
5350;BME280;2697;42.144;24.794;2023-05-24T09:15:57;159570.03;;;27.00;47.93
5350;BME280;2697;42.144;24.794;2023-05-24T09:18:23;159539.34;;;26.88;48.14
5350;BME280;2697;42.144;24.794;2023-05-24T09:20:48;159646.00;;;27.29;46.55
5350;BME280;2697;42.144;24.794;2023-05-24T09:23:14;159663.31;;;27.36;46.68
5350;BME280;2697;42.144;24.794;2023-05-24T09:25:43;159780.66;;;27.80;45.72
5350;BME280;2697;42.144;24.794;2023-05-24T09:28:12;159733.94;;;27.63;47.13
5350;BME280;2697;42.144;24.794;2023-05-24T09:30:39;159816.66;;;27.94;43.95
5350;BME280;2697;42.144;24.794;2023-05-24T09:33:06;159803.31;;;27.89;44.51
5350;BME280;2697;42.144;24.794;2023-05-24T09:35:32;159721.97;;;27.58;43.41
5350;BME280;2697;42.144;24.794;2023-05-24T09:37:58;159636.66;;;27.25;42.96
5350;BME280;2697;42.144;24.794;2023-05-24T09:40:25;159664.69;;;27.36;43.68
5350;BME280;2697;42.144;24.794;2023-05-24T09:43:04;159616.72;;;27.18;45.14
5350;BME280;2697;42.144;24.794;2023-05-24T09:45:32;159586.03;;;27.06;45.73
5350;BME280;2697;42.144;24.794;2023-05-24T09:48:02;159712.59;;;27.54;45.55
5350;BME280;2697;42.144;24.794;2023-05-24T09:50:28;159707.28;;;27.52;44.26
5350;BME280;2697;42.144;24.794;2023-05-24T09:52:53;159723.31;;;27.59;44.60
5350;BME280;2697;42.144;24.794;2023-05-24T09:55:20;159784.63;;;27.82;45.62
5350;BME280;2697;42.144;24.794;2023-05-24T09:57:50;159607.34;;;27.14;46.04
5350;BME280;2697;42.144;24.794;2023-05-24T10:00:21;159650.00;;;27.31;44.40
5350;BME280;2697;42.144;24.794;2023-05-24T10:02:59;159679.31;;;27.42;44.24
5350;BME280;2697;42.144;24.794;2023-05-24T10:05:26;159742.03;;;27.66;45.04
5350;BME280;2697;42.144;24.794;2023-05-24T10:07:53;159827.31;;;27.98;44.21
5350;BME280;2697;42.144;24.794;2023-05-24T10:10:19;159856.63;;;28.09;43.63
5350;BME280;2697;42.144;24.794;2023-05-24T10:12:45;159805.97;;;27.90;43.87
5350;BME280;2697;42.144;24.794;2023-05-24T10:15:12;159709.94;;;27.53;43.93
5350;BME280;2697;42.144;24.794;2023-05-24T10:17:37;159795.31;;;27.86;43.60
5350;BME280;2697;42.144;24.794;2023-05-24T10:20:03;159901.97;;;28.27;43.88
5350;BME280;2697;42.144;24.794;2023-05-24T10:22:36;160059.41;;;28.87;42.57
5350;BME280;2697;42.144;24.794;2023-05-24T10:25:05;160119.47;;;29.10;41.62
5350;BME280;2697;42.144;24.794;2023-05-24T10:27:32;160123.47;;;29.11;41.27
5350;BME280;2697;42.144;24.794;2023-05-24T10:30:13;160188.84;;;29.36;40.33
5350;BME280;2697;42.144;24.794;2023-05-24T10:32:42;160183.53;;;29.34;39.95
5350;BME280;2697;42.144;24.794;2023-05-24T10:35:09;160190.19;;;29.37;40.05
5350;BME280;2697;42.144;24.794;2023-05-24T10:37:39;160208.88;;;29.44;40.05
5350;BME280;2697;42.144;24.794;2023-05-24T10:40:06;160355.72;;;30.00;38.54
5350;BME280;2697;42.144;24.794;2023-05-24T10:42:34;160278.31;;;29.70;38.38
5350;BME280;2697;42.144;24.794;2023-05-24T10:45:36;160224.91;;;29.50;39.29
5350;BME280;2697;42.144;24.794;2023-05-24T10:50:40;160182.19;;;29.34;40.74
5350;BME280;2697;42.144;24.794;2023-05-24T10:53:18;160042.06;;;28.80;41.30
5350;BME280;2697;42.144;24.794;2023-05-24T10:55:58;159972.69;;;28.54;41.82
5350;BME280;2697;42.144;24.794;2023-05-24T11:00:59;160279.66;;;29.71;39.80
5350;BME280;2697;42.144;24.794;2023-05-24T11:03:31;160239.59;;;29.56;40.71
5350;BME280;2697;42.144;24.794;2023-05-24T11:05:57;160227.63;;;29.51;40.69
5350;BME280;2697;42.144;24.794;2023-05-24T11:08:24;159848.66;;;28.06;41.79
5350;BME280;2697;42.144;24.794;2023-05-24T11:11:01;159910.06;;;28.30;42.04
5350;BME280;2697;42.144;24.794;2023-05-24T11:13:29;160035.41;;;28.78;42.40
5350;BME280;2697;42.144;24.794;2023-05-24T11:15:55;160228.94;;;29.51;40.09
5350;BME280;2697;42.144;24.794;2023-05-24T11:18:23;160275.66;;;29.69;39.70
5350;BME280;2697;42.144;24.794;2023-05-24T11:20:48;160407.81;;;30.20;38.08
5350;BME280;2697;42.144;24.794;2023-05-24T11:23:15;160334.34;;;29.92;39.14
5350;BME280;2697;42.144;24.794;2023-05-24T11:25:41;160374.47;;;30.07;37.56
5350;BME280;2697;42.144;24.794;2023-05-24T11:28:10;160224.91;;;29.50;38.67
5350;BME280;2697;42.144;24.794;2023-05-24T11:30:44;160568.13;;;30.81;37.04
5350;BME280;2697;42.144;24.794;2023-05-24T11:33:19;160132.81;;;29.15;39.93
5350;BME280;2697;42.144;24.794;2023-05-24T11:35:47;160235.59;;;29.54;39.91
5350;BME280;2697;42.144;24.794;2023-05-24T11:38:14;160210.22;;;29.44;41.14
5350;BME280;2697;42.144;24.794;2023-05-24T11:40:44;160068.78;;;28.90;42.26
5350;BME280;2697;42.144;24.794;2023-05-24T11:43:13;160006.06;;;28.66;41.15
5350;BME280;2697;42.144;24.794;2023-05-24T11:45:40;159872.66;;;28.16;42.97
5350;BME280;2697;42.144;24.794;2023-05-24T11:48:13;159792.66;;;27.85;43.65
5350;BME280;2697;42.144;24.794;2023-05-24T11:50:40;159812.66;;;27.93;43.19
5350;BME280;2697;42.144;24.794;2023-05-24T11:53:13;160112.81;;;29.07;41.37
5350;BME280;2697;42.144;24.794;2023-05-24T11:55:39;160038.06;;;28.79;40.20
5350;BME280;2697;42.144;24.794;2023-05-24T11:58:19;160091.47;;;28.99;40.46
5350;BME280;2697;42.144;24.794;2023-05-24T12:00:47;159946.03;;;28.44;42.81
5350;BME280;2697;42.144;24.794;2023-05-24T12:03:13;159912.72;;;28.31;42.11
5350;BME280;2697;42.144;24.794;2023-05-24T12:05:38;159928.69;;;28.37;41.24
5350;BME280;2697;42.144;24.794;2023-05-24T12:08:08;160055.41;;;28.85;41.78
5350;BME280;2697;42.144;24.794;2023-05-24T12:10:35;160330.38;;;29.90;39.20
5350;BME280;2697;42.144;24.794;2023-05-24T12:13:05;160550.75;;;30.74;38.05
5350;BME280;2697;42.144;24.794;2023-05-24T12:15:31;160409.16;;;30.20;38.86
5350;BME280;2697;42.144;24.794;2023-05-24T12:17:57;160347.72;;;29.97;38.19
5350;BME280;2697;42.144;24.794;2023-05-24T12:20:23;160515.94;;;30.61;37.43
5350;BME280;2697;42.144;24.794;2023-05-24T12:22:52;160326.38;;;29.89;38.30
5350;BME280;2697;42.144;24.794;2023-05-24T12:25:18;160099.44;;;29.02;38.37
5350;BME280;2697;42.144;24.794;2023-05-24T12:27:52;160314.31;;;29.84;38.12
5350;BME280;2697;42.144;24.794;2023-05-24T12:30:24;160526.69;;;30.65;37.40
5350;BME280;2697;42.144;24.794;2023-05-24T12:32:50;160373.09;;;30.06;36.39
5350;BME280;2697;42.144;24.794;2023-05-24T12:35:17;160644.22;;;31.10;34.23
5350;BME280;2697;42.144;24.794;2023-05-24T12:37:43;160446.56;;;30.34;35.58
5350;BME280;2697;42.144;24.794;2023-05-24T12:40:17;160406.50;;;30.19;36.25
5350;BME280;2697;42.144;24.794;2023-05-24T12:42:45;160417.16;;;30.23;36.71
5350;BME280;2697;42.144;24.794;2023-05-24T12:45:18;160353.06;;;29.99;36.88
5350;BME280;2697;42.144;24.794;2023-05-24T12:47:50;160371.72;;;30.06;36.16
5350;BME280;2697;42.144;24.794;2023-05-24T12:50:20;160716.41;;;31.37;34.79
5350;BME280;2697;42.144;24.794;2023-05-24T12:52:46;160689.72;;;31.27;34.35
5350;BME280;2697;42.144;24.794;2023-05-24T12:55:13;160622.84;;;31.02;34.24
5350;BME280;2697;42.144;24.794;2023-05-24T12:57:42;160683.00;;;31.25;34.37
5350;BME280;2697;42.144;24.794;2023-05-24T13:00:10;160636.19;;;31.07;34.57
5350;BME280;2697;42.144;24.794;2023-05-24T13:02:38;160883.44;;;32.01;33.23
5350;BME280;2697;42.144;24.794;2023-05-24T13:05:06;160732.41;;;31.43;34.01
5350;BME280;2697;42.144;24.794;2023-05-24T13:07:31;160803.22;;;31.70;33.00
5350;BME280;2697;42.144;24.794;2023-05-24T13:09:57;160863.44;;;31.93;32.82
5350;BME280;2697;42.144;24.794;2023-05-24T13:12:24;161136.22;;;32.97;32.04
5350;BME280;2697;42.144;24.794;2023-05-24T13:14:49;161029.19;;;32.56;31.95
5350;BME280;2697;42.144;24.794;2023-05-24T13:17:15;160807.22;;;31.72;32.93
5350;BME280;2697;42.144;24.794;2023-05-24T13:19:42;160633.53;;;31.06;34.36